createdAt,value
2018-11-26T00:03:46.518Z,82.8
2018-11-26T00:20:22.212Z,82.8
2018-11-26T00:36:57.958Z,82.8
2018-11-26T00:53:33.572Z,82.8
2018-11-26T01:10:09.241Z,82.8
2018-11-26T01:26:44.886Z,82.8
2018-11-26T01:43:20.571Z,82.8
2018-11-26T01:59:56.276Z,82.8
2018-11-26T02:16:31.879Z,82.8
2018-11-26T02:33:07.610Z,82.4
2018-11-26T02:49:43.428Z,82.0
2018-11-26T03:06:19.222Z,82.0
2018-11-26T03:22:55.882Z,82.0
2018-11-26T03:39:30.984Z,82.0
2018-11-26T03:56:06.843Z,82.4
2018-11-26T04:12:42.724Z,82.4
2018-11-26T04:29:18.604Z,82.4
2018-11-26T04:45:54.676Z,82.0
2018-11-26T05:02:30.644Z,81.6
2018-11-26T05:19:06.701Z,81.6
2018-11-26T05:35:42.613Z,81.6
2018-11-26T05:52:18.693Z,81.6
2018-11-26T06:08:54.614Z,81.6
2018-11-26T06:25:30.849Z,81.6
2018-11-26T06:42:06.775Z,81.2
2018-11-26T06:58:43.157Z,81.2
2018-11-26T07:15:19.050Z,81.2
2018-11-26T07:48:31.130Z,81.6
2018-11-26T08:05:07.161Z,81.2
2018-11-26T08:21:43.150Z,81.2
2018-11-26T08:38:19.142Z,81.2
2018-11-26T08:54:55.169Z,81.2
2018-11-26T09:11:31.362Z,80.4
2018-11-26T09:28:07.591Z,80.0
2018-11-26T09:44:43.846Z,80.4
2018-11-26T10:01:20.115Z,79.2
2018-11-26T10:17:56.168Z,78.8
2018-11-26T10:34:32.221Z,78.8
2018-11-26T10:51:08.350Z,78.0
2018-11-26T11:07:44.268Z,77.6
2018-11-26T11:24:19.990Z,77.2
2018-11-26T11:57:31.912Z,76.8
2018-11-26T12:14:06.915Z,76.4
2018-11-26T12:30:42.637Z,76.4
2018-11-26T12:47:18.551Z,75.6
2018-11-26T13:03:54.305Z,75.6
2018-11-26T13:20:29.960Z,75.2
2018-11-26T13:37:05.451Z,75.2
2018-11-26T13:53:41.122Z,75.6
2018-11-26T14:10:16.754Z,74.8
2018-11-26T14:26:52.040Z,74.4
2018-11-26T15:00:02.781Z,74.4
2018-11-26T15:16:37.898Z,75.2
2018-11-26T15:33:13.185Z,74.4
2018-11-26T15:49:49.159Z,75.2
2018-11-26T16:06:23.616Z,75.2
2018-11-26T16:22:58.957Z,74.4
2018-11-26T16:39:34.329Z,74.4
2018-11-26T16:56:09.171Z,74.8
2018-11-26T17:12:44.032Z,74.4
2018-11-26T17:29:18.604Z,74.8
2018-11-26T17:45:53.326Z,74.4
2018-11-26T18:02:28.166Z,74.8
2018-11-26T18:19:02.890Z,74.8
2018-11-26T18:35:37.629Z,74.8
2018-11-26T19:08:47.279Z,74.8
2018-11-26T19:25:21.834Z,74.8
2018-11-26T19:58:32.077Z,74.8
2018-11-26T20:15:06.151Z,74.8
2018-11-26T20:31:40.959Z,74.8
2018-11-26T20:48:15.708Z,74.8
2018-11-26T21:04:51.641Z,74.8
2018-11-26T21:21:25.437Z,75.2
2018-11-26T21:38:00.313Z,75.2
2018-11-26T21:54:35.184Z,75.2
2018-11-26T22:11:10.575Z,75.2
2018-11-26T22:27:45.182Z,75.2
2018-11-26T22:44:19.895Z,75.2
2018-11-26T23:00:54.796Z,75.2
2018-11-26T23:17:29.758Z,75.6
2018-11-26T23:34:04.761Z,75.2
2018-11-26T23:50:39.673Z,75.6
